Buoy 62726

sailwx.info

Track history (hours):
 
Tides and Currents Weather Stations Pressure Air Temp Water Temp Dewpoint Dewpoint Depression Visibility Wind Speed Wind Dir Waves Ship Positions

Drifting buoy 62726

Last reported at 2014-Oct-25 17:00 UTC. Time now 2014-Oct-25 19:06 UTC.
Position N 41°06' W 015°18'.

Water temperature 19.3 ° C

Date/timePositionNaut miles runAvg speedWind from/ knotsBaromVisibWave heightAir tempDewpointWater temp
2014-Oct-25 17:00N 41°06' W 015°18'0 0.5 19.3
2014-Oct-25 16:00N 41°06' W 015°18'1 0.6 19.4
2014-Oct-25 14:00N 41°05' W 015°18'1 0.4 19.4
2014-Oct-25 12:00N 41°04' W 015°18'0 0.0 19.2
2014-Oct-25 10:00N 41°04' W 015°18'0 0.0 19.1
2014-Oct-25 08:00N 41°04' W 015°18'0 0.1 19.1
2014-Oct-25 06:00N 41°04' W 015°18'0 0.2 19.1
2014-Oct-25 05:00N 41°04' W 015°19'1 1.0 19.2
2014-Oct-25 04:00N 41°03' W 015°19'0 0.0 19.2
2014-Oct-24 23:00N 41°03' W 015°19'0 0.0 19.3
2014-Oct-24 22:00N 41°03' W 015°19'0 0.3 19.3
2014-Oct-24 21:00N 41°03' W 015°19'1 0.2 19.3
2014-Oct-24 18:00N 41°03' W 015°20'1 1.2 19.3
2014-Oct-24 17:00N 41°03' W 015°21'0 0.1 19.4
2014-Oct-24 14:00N 41°03' W 015°21'1 0.5 19.3
2014-Oct-24 12:00N 41°02' W 015°22'0 0.0 19.3
2014-Oct-24 09:00N 41°02' W 015°22'0 0.2 19.2
2014-Oct-24 08:00N 41°03' W 015°22'0 0.1 19.1
2014-Oct-24 05:00N 41°03' W 015°23'2 1.9 19.2
2014-Oct-24 04:00N 41°03' W 015°25'0 0.0 19.1
2014-Oct-24 03:00N 41°03' W 015°25'0 0.0 19.2
2014-Oct-23 23:00N 41°03' W 015°25'1 0.6 19.2
2014-Oct-23 22:00N 41°03' W 015°26'0 0.1 19.2
2014-Oct-23 20:00N 41°03' W 015°26'1 0.7 19.3
2014-Oct-23 18:00N 41°02' W 015°28'0 0.0 19.4
2014-Oct-23 16:00N 41°02' W 015°28'0 0.2 19.3
2014-Oct-23 15:00N 41°02' W 015°28'0 0.3 19.5
2014-Oct-23 14:00N 41°02' W 015°28'0 0.1 19.5
2014-Oct-23 12:00N 41°02' W 015°28'1 0.6 19.2
2014-Oct-23 11:00N 41°03' W 015°28'1 0.5 19.1
2014-Oct-23 09:00N 41°03' W 015°29'0 0.1 19.1
2014-Oct-23 07:00N 41°03' W 015°29'0 0.3 19.1
2014-Oct-23 06:00N 41°04' W 015°30'1 1.0 19.1
2014-Oct-23 05:00N 41°04' W 015°31'0 0.0 19.1
2014-Oct-23 03:00N 41°04' W 015°31'0 0.2 19.1
2014-Oct-23 01:00N 41°03' W 015°31'2 0.5 19.1
2014-Oct-22 22:00N 41°05' W 015°32'0 0.0 19.1
2014-Oct-22 21:00N 41°05' W 015°32'1 0.3 19.2
2014-Oct-22 19:00N 41°05' W 015°33'0 0.0 19.2
2014-Oct-22 17:00N 41°05' W 015°33'0 0.4 19.2
2014-Oct-22 16:00N 41°05' W 015°33'0 0.0 19.3
2014-Oct-22 15:00N 41°05' W 015°33'1 0.2 19.2
2014-Oct-22 12:00N 41°06' W 015°34'0 0.0 19.1
2014-Oct-22 11:00N 41°06' W 015°34'0 0.0 19.1
2014-Oct-22 10:00N 41°06' W 015°34'1 0.3 19.0
2014-Oct-22 07:00N 41°06' W 015°34'0 0.2 19.0
2014-Oct-22 05:00N 41°06' W 015°34'0 0.2 19.1
2014-Oct-22 03:00N 41°07' W 015°34'0 0.1 19.1
2014-Oct-21 23:00N 41°07' W 015°34'0 0.3 19.1
2014-Oct-21 22:00N 41°07' W 015°34'0 0.3 19.1
2014-Oct-21 21:00N 41°07' W 015°34'1 0.9 19.1
2014-Oct-21 20:00N 41°08' W 015°33'0 0.0 19.2
2014-Oct-21 19:00N 41°08' W 015°33'0 0.0 19.2
2014-Oct-21 18:00N 41°08' W 015°33'1 1.0 19.3
2014-Oct-21 17:00N 41°07' W 015°34'0 0.0 19.5
2014-Oct-21 15:00N 41°07' W 015°34'0 0.0 19.8
2014-Oct-21 14:00N 41°07' W 015°34'0 0.4 19.8
2014-Oct-21 13:00N 41°07' W 015°34'0 0.2 19.5
2014-Oct-21 11:00N 41°07' W 015°34'0 0.0 19.1
2014-Oct-21 10:00N 41°07' W 015°34'1 0.2 19.1
2014-Oct-21 06:00N 41°08' W 015°35'1 0.7 19.0
2014-Oct-21 05:00N 41°08' W 015°34'0 0.2 19.0
2014-Oct-21 03:00N 41°07' W 015°34'0 0.1 19.0
2014-Oct-20 23:00N 41°07' W 015°34'0 0.1 19.0
2014-Oct-20 21:00N 41°07' W 015°34'1 0.6 19.0
2014-Oct-20 20:00N 41°08' W 015°35'0 0.1 19.0
2014-Oct-20 17:00N 41°08' W 015°35'1 0.9 19.0
2014-Oct-20 16:00N 41°07' W 015°35'0 0.4 19.0
2014-Oct-20 15:00N 41°08' W 015°35'1 0.3 19.1
2014-Oct-20 12:00N 41°07' W 015°36'0 0.1 19.0
2014-Oct-20 11:00N 41°07' W 015°35'0 0.0 19.0
2014-Oct-20 10:00N 41°07' W 015°35'1 0.6 18.9
2014-Oct-20 09:00N 41°08' W 015°35'1 0.2 18.9
2014-Oct-20 06:00N 41°08' W 015°34'0 0.0 18.9
2014-Oct-19 23:00N 41°08' W 015°35'1 1.0 18.9
2014-Oct-19 22:00N 41°09' W 015°35'0 0.0 18.9
2014-Oct-19 21:00N 41°09' W 015°35'0 0.0 18.9
2014-Oct-19 20:00N 41°09' W 015°35'1 0.5 18.9
2014-Oct-19 18:00N 41°09' W 015°36'1 0.5 18.9
2014-Oct-19 16:00N 41°09' W 015°34'0 0.0 19.0
2014-Oct-19 15:00N 41°09' W 015°34'1 0.1 19.0
2014-Oct-19 11:00N 41°10' W 015°34'1 0.7 19.0
2014-Oct-19 10:00N 41°10' W 015°33'0 0.1 19.0
2014-Oct-19 09:00N 41°10' W 015°33'1 0.3 19.0
2014-Oct-19 06:00N 41°11' W 015°33'0 0.5 19.0
2014-Oct-19 05:00N 41°10' W 015°33'3 0.6 19.0
2014-Oct-19 01:00N 41°13' W 015°34'1 0.2 19.0
2014-Oct-18 22:00N 41°13' W 015°35'0 0.0 19.0
2014-Oct-18 21:00N 41°13' W 015°35'0 0.2 19.0
2014-Oct-18 19:00N 41°12' W 015°35'0 0.4 19.0
2014-Oct-18 18:00N 41°12' W 015°35'1 1.0 19.0
2014-Oct-18 17:00N 41°13' W 015°34'0 0.0 19.0
2014-Oct-18 16:00N 41°13' W 015°34'1 0.3 19.0
2014-Oct-18 12:00N 41°14' W 015°34'2 1.7 19.0
2014-Oct-18 11:00N 41°15' W 015°36'0 0.3 19.0
2014-Oct-18 10:00N 41°15' W 015°36'1 1.1 19.0
2014-Oct-18 09:00N 41°16' W 015°37'1 0.4 19.0
2014-Oct-18 06:00N 41°17' W 015°38'0 0.0 19.0
2014-Oct-18 05:00N 41°17' W 015°38'3 0.4 19.0
2014-Oct-17 22:00N 41°19' W 015°40'2 2.1 19.0
2014-Oct-17 21:00N 41°21' W 015°39'0 0.0 19.0
2014-Oct-17 20:00N 41°21' W 015°39'0 0.0 19.1
2014-Oct-17 18:00N 41°21' W 015°39'3 1.1 19.1
2014-Oct-17 15:00N 41°24' W 015°41'2 1.5 19.1
2014-Oct-17 14:00N 41°25' W 015°42'1 0.3 19.1
2014-Oct-17 12:00N 41°25' W 015°43'1 1.1 19.1
2014-Oct-17 11:00N 41°26' W 015°44'1 1.4 19.1
2014-Oct-17 10:00N 41°27' W 015°43'0 0.0 19.1
2014-Oct-17 08:00N 41°27' W 015°43'0 0.0 19.1
2014-Oct-17 04:00N 41°27' W 015°43'4 2.1 19.1
2014-Oct-17 02:00N 41°30' W 015°46'3 1.0 19.1
2014-Oct-16 23:00N 41°33' W 015°49'0 0.0 19.1
2014-Oct-16 21:00N 41°33' W 015°49'0 0.0 19.2
2014-Oct-16 20:00N 41°33' W 015°49'0 0.0 19.2
2014-Oct-16 19:00N 41°33' W 015°49'0 0.0 19.2
2014-Oct-16 18:00N 41°33' W 015°49'0 0.0 19.2
2014-Oct-16 17:00N 41°33' W 015°49'1 0.3 19.2
2014-Oct-16 12:00N 41°34' W 015°48'0 0.3 19.2
2014-Oct-16 11:00N 41°34' W 015°48'3 0.9 19.2
2014-Oct-16 08:00N 41°37' W 015°48'2 0.5 19.2
2014-Oct-16 05:00N 41°38' W 015°48'4 0.4 19.2
2014-Oct-15 18:00N 41°42' W 015°51'   19.3
Track history (hours):
 
Tides and Currents Weather Stations Pressure Air Temp Water Temp Dewpoint Dewpoint Depression Visibility Wind Speed Wind Dir Waves Ship Positions

Drifting buoy 62726

Last reported at 2014-Oct-25 17:00 UTC. Time now 2014-Oct-25 19:06 UTC.
Position N 41°06' W 015°18'.

Water temperature 19.3 ° C

Date/timePositionNaut miles runAvg speedWind from/ knotsBaromVisibWave heightAir tempDewpointWater temp
2014-Oct-25 17:00N 41°06' W 015°18'0 0.5 19.3
2014-Oct-25 16:00N 41°06' W 015°18'1 0.6 19.4
2014-Oct-25 14:00N 41°05' W 015°18'1 0.4 19.4
2014-Oct-25 12:00N 41°04' W 015°18'0 0.0 19.2
2014-Oct-25 10:00N 41°04' W 015°18'0 0.0 19.1
2014-Oct-25 08:00N 41°04' W 015°18'0 0.1 19.1
2014-Oct-25 06:00N 41°04' W 015°18'0 0.2 19.1
2014-Oct-25 05:00N 41°04' W 015°19'1 1.0 19.2
2014-Oct-25 04:00N 41°03' W 015°19'0 0.0 19.2
2014-Oct-24 23:00N 41°03' W 015°19'0 0.0 19.3
2014-Oct-24 22:00N 41°03' W 015°19'0 0.3 19.3
2014-Oct-24 21:00N 41°03' W 015°19'1 0.2 19.3
2014-Oct-24 18:00N 41°03' W 015°20'1 1.2 19.3
2014-Oct-24 17:00N 41°03' W 015°21'0 0.1 19.4
2014-Oct-24 14:00N 41°03' W 015°21'1 0.5 19.3
2014-Oct-24 12:00N 41°02' W 015°22'0 0.0 19.3
2014-Oct-24 09:00N 41°02' W 015°22'0 0.2 19.2
2014-Oct-24 08:00N 41°03' W 015°22'0 0.1 19.1
2014-Oct-24 05:00N 41°03' W 015°23'2 1.9 19.2
2014-Oct-24 04:00N 41°03' W 015°25'0 0.0 19.1
2014-Oct-24 03:00N 41°03' W 015°25'0 0.0 19.2
2014-Oct-23 23:00N 41°03' W 015°25'1 0.6 19.2
2014-Oct-23 22:00N 41°03' W 015°26'0 0.1 19.2
2014-Oct-23 20:00N 41°03' W 015°26'1 0.7 19.3
2014-Oct-23 18:00N 41°02' W 015°28'0 0.0 19.4
2014-Oct-23 16:00N 41°02' W 015°28'0 0.2 19.3
2014-Oct-23 15:00N 41°02' W 015°28'0 0.3 19.5
2014-Oct-23 14:00N 41°02' W 015°28'0 0.1 19.5
2014-Oct-23 12:00N 41°02' W 015°28'1 0.6 19.2
2014-Oct-23 11:00N 41°03' W 015°28'1 0.5 19.1
2014-Oct-23 09:00N 41°03' W 015°29'0 0.1 19.1
2014-Oct-23 07:00N 41°03' W 015°29'0 0.3 19.1
2014-Oct-23 06:00N 41°04' W 015°30'1 1.0 19.1
2014-Oct-23 05:00N 41°04' W 015°31'0 0.0 19.1
2014-Oct-23 03:00N 41°04' W 015°31'0 0.2 19.1
2014-Oct-23 01:00N 41°03' W 015°31'2 0.5 19.1
2014-Oct-22 22:00N 41°05' W 015°32'0 0.0 19.1
2014-Oct-22 21:00N 41°05' W 015°32'1 0.3 19.2
2014-Oct-22 19:00N 41°05' W 015°33'0 0.0 19.2
2014-Oct-22 17:00N 41°05' W 015°33'0 0.4 19.2
2014-Oct-22 16:00N 41°05' W 015°33'0 0.0 19.3
2014-Oct-22 15:00N 41°05' W 015°33'1 0.2 19.2
2014-Oct-22 12:00N 41°06' W 015°34'0 0.0 19.1
2014-Oct-22 11:00N 41°06' W 015°34'0 0.0 19.1
2014-Oct-22 10:00N 41°06' W 015°34'1 0.3 19.0
2014-Oct-22 07:00N 41°06' W 015°34'0 0.2 19.0
2014-Oct-22 05:00N 41°06' W 015°34'0 0.2 19.1
2014-Oct-22 03:00N 41°07' W 015°34'0 0.1 19.1
2014-Oct-21 23:00N 41°07' W 015°34'0 0.3 19.1
2014-Oct-21 22:00N 41°07' W 015°34'0 0.3 19.1
2014-Oct-21 21:00N 41°07' W 015°34'1 0.9 19.1
2014-Oct-21 20:00N 41°08' W 015°33'0 0.0 19.2
2014-Oct-21 19:00N 41°08' W 015°33'0 0.0 19.2
2014-Oct-21 18:00N 41°08' W 015°33'1 1.0 19.3
2014-Oct-21 17:00N 41°07' W 015°34'0 0.0 19.5
2014-Oct-21 15:00N 41°07' W 015°34'0 0.0 19.8
2014-Oct-21 14:00N 41°07' W 015°34'0 0.4 19.8
2014-Oct-21 13:00N 41°07' W 015°34'0 0.2 19.5
2014-Oct-21 11:00N 41°07' W 015°34'0 0.0 19.1
2014-Oct-21 10:00N 41°07' W 015°34'1 0.2 19.1
2014-Oct-21 06:00N 41°08' W 015°35'1 0.7 19.0
2014-Oct-21 05:00N 41°08' W 015°34'0 0.2 19.0
2014-Oct-21 03:00N 41°07' W 015°34'0 0.1 19.0
2014-Oct-20 23:00N 41°07' W 015°34'0 0.1 19.0
2014-Oct-20 21:00N 41°07' W 015°34'1 0.6 19.0
2014-Oct-20 20:00N 41°08' W 015°35'0 0.1 19.0
2014-Oct-20 17:00N 41°08' W 015°35'1 0.9 19.0
2014-Oct-20 16:00N 41°07' W 015°35'0 0.4 19.0
2014-Oct-20 15:00N 41°08' W 015°35'1 0.3 19.1
2014-Oct-20 12:00N 41°07' W 015°36'0 0.1 19.0
2014-Oct-20 11:00N 41°07' W 015°35'0 0.0 19.0
2014-Oct-20 10:00N 41°07' W 015°35'1 0.6 18.9
2014-Oct-20 09:00N 41°08' W 015°35'1 0.2 18.9
2014-Oct-20 06:00N 41°08' W 015°34'0 0.0 18.9
2014-Oct-19 23:00N 41°08' W 015°35'1 1.0 18.9
2014-Oct-19 22:00N 41°09' W 015°35'0 0.0 18.9
2014-Oct-19 21:00N 41°09' W 015°35'0 0.0 18.9
2014-Oct-19 20:00N 41°09' W 015°35'1 0.5 18.9
2014-Oct-19 18:00N 41°09' W 015°36'1 0.5 18.9
2014-Oct-19 16:00N 41°09' W 015°34'0 0.0 19.0
2014-Oct-19 15:00N 41°09' W 015°34'1 0.1 19.0
2014-Oct-19 11:00N 41°10' W 015°34'1 0.7 19.0
2014-Oct-19 10:00N 41°10' W 015°33'0 0.1 19.0
2014-Oct-19 09:00N 41°10' W 015°33'1 0.3 19.0
2014-Oct-19 06:00N 41°11' W 015°33'0 0.5 19.0
2014-Oct-19 05:00N 41°10' W 015°33'3 0.6 19.0
2014-Oct-19 01:00N 41°13' W 015°34'1 0.2 19.0
2014-Oct-18 22:00N 41°13' W 015°35'0 0.0 19.0
2014-Oct-18 21:00N 41°13' W 015°35'0 0.2 19.0
2014-Oct-18 19:00N 41°12' W 015°35'0 0.4 19.0
2014-Oct-18 18:00N 41°12' W 015°35'1 1.0 19.0
2014-Oct-18 17:00N 41°13' W 015°34'0 0.0 19.0
2014-Oct-18 16:00N 41°13' W 015°34'1 0.3 19.0
2014-Oct-18 12:00N 41°14' W 015°34'2 1.7 19.0
2014-Oct-18 11:00N 41°15' W 015°36'0 0.3 19.0
2014-Oct-18 10:00N 41°15' W 015°36'1 1.1 19.0
2014-Oct-18 09:00N 41°16' W 015°37'1 0.4 19.0
2014-Oct-18 06:00N 41°17' W 015°38'0 0.0 19.0
2014-Oct-18 05:00N 41°17' W 015°38'3 0.4 19.0
2014-Oct-17 22:00N 41°19' W 015°40'2 2.1 19.0
2014-Oct-17 21:00N 41°21' W 015°39'0 0.0 19.0
2014-Oct-17 20:00N 41°21' W 015°39'0 0.0 19.1
2014-Oct-17 18:00N 41°21' W 015°39'3 1.1 19.1
2014-Oct-17 15:00N 41°24' W 015°41'2 1.5 19.1
2014-Oct-17 14:00N 41°25' W 015°42'1 0.3 19.1
2014-Oct-17 12:00N 41°25' W 015°43'1 1.1 19.1
2014-Oct-17 11:00N 41°26' W 015°44'1 1.4 19.1
2014-Oct-17 10:00N 41°27' W 015°43'0 0.0 19.1
2014-Oct-17 08:00N 41°27' W 015°43'0 0.0 19.1
2014-Oct-17 04:00N 41°27' W 015°43'4 2.1 19.1
2014-Oct-17 02:00N 41°30' W 015°46'3 1.0 19.1
2014-Oct-16 23:00N 41°33' W 015°49'0 0.0 19.1
2014-Oct-16 21:00N 41°33' W 015°49'0 0.0 19.2
2014-Oct-16 20:00N 41°33' W 015°49'0 0.0 19.2
2014-Oct-16 19:00N 41°33' W 015°49'0 0.0 19.2
2014-Oct-16 18:00N 41°33' W 015°49'0 0.0 19.2
2014-Oct-16 17:00N 41°33' W 015°49'1 0.3 19.2
2014-Oct-16 12:00N 41°34' W 015°48'0 0.3 19.2
2014-Oct-16 11:00N 41°34' W 015°48'3 0.9 19.2
2014-Oct-16 08:00N 41°37' W 015°48'2 0.5 19.2
2014-Oct-16 05:00N 41°38' W 015°48'4 0.4 19.2
2014-Oct-15 18:00N 41°42' W 015°51'   19.3

Dump ship's entire track history